Time;durP1;ratioP1;P1;durP2;ratioP2;P2;SDS_P1;SDS_P2;PMS_P1;PMS_P2;Temp;Humidity;BMP_temperature;BMP_pressure;BME280_temperature;BME280_humidity;BME280_pressure;Samples;Min_cycle;Max_cycle;Signal;HPM_P1;HPM_P2
2021/04/09 00:01:42;;;;;;;11.60;5.93;;;2.10;99.90;;;;;;5134735;27;20558;-66
2021/04/09 00:04:08;;;;;;;6.28;4.93;;;2.10;99.90;;;;;;5135259;27;20194;-66
2021/04/09 00:06:34;;;;;;;17.60;7.77;;;2.20;99.90;;;;;;5134622;28;20190;-67
2021/04/09 00:09:00;;;;;;;19.02;8.90;;;2.10;99.90;;;;;;5134545;28;20932;-66
2021/04/09 00:11:26;;;;;;;32.20;19.42;;;2.10;99.90;;;;;;5134633;28;20608;-66
2021/04/09 00:13:51;;;;;;;58.87;22.20;;;1.90;99.90;;;;;;5134830;28;20246;-67
2021/04/09 00:16:17;;;;;;;58.13;35.03;;;2.00;99.90;;;;;;5134565;28;20439;-67
2021/04/09 00:18:42;;;;;;;56.80;32.40;;;1.90;99.90;;;;;;5116028;28;20310;-66
2021/04/09 00:21:08;;;;;;;50.33;28.13;;;1.90;99.90;;;;;;5134556;28;20179;-67
2021/04/09 00:23:34;;;;;;;38.70;23.53;;;1.70;99.90;;;;;;5134389;28;20191;-67
2021/04/09 00:26:01;;;;;;;38.50;22.10;;;1.80;99.90;;;;;;5134644;28;20175;-67
2021/04/09 00:28:26;;;;;;;73.75;32.92;;;1.80;99.90;;;;;;5134683;28;20587;-65
2021/04/09 00:30:52;;;;;;;49.30;26.53;;;1.90;99.90;;;;;;5134457;28;20175;-67
2021/04/09 00:33:18;;;;;;;64.43;32.57;;;1.60;99.90;;;;;;5134685;28;20198;-65
2021/04/09 00:35:45;;;;;;;35.97;20.33;;;1.50;99.90;;;;;;5134444;28;20200;-67
2021/04/09 00:38:11;;;;;;;30.85;18.90;;;1.50;99.90;;;;;;5134060;28;20214;-65
2021/04/09 00:40:41;;;;;;;29.33;17.73;;;1.50;99.90;;;;;;5134341;28;20171;-66
2021/04/09 00:43:07;;;;;;;37.35;21.00;;;1.60;99.90;;;;;;5134826;27;20439;-65
2021/04/09 00:45:37;;;;;;;19.70;11.80;;;1.60;99.90;;;;;;5138260;27;20172;-67
2021/04/09 00:48:06;;;;;;;26.05;16.05;;;1.50;99.90;;;;;;5119899;27;20195;-66
2021/04/09 00:50:34;;;;;;;20.70;12.18;;;1.60;99.90;;;;;;5138175;27;20691;-67
2021/04/09 00:53:02;;;;;;;26.00;13.27;;;1.60;99.90;;;;;;5119890;27;20199;-66
2021/04/09 00:55:28;;;;;;;31.90;20.25;;;1.60;99.90;;;;;;5138162;27;20182;-65
2021/04/09 00:57:57;;;;;;;32.43;20.80;;;1.60;99.90;;;;;;5119539;27;20219;-65
2021/04/09 01:00:23;;;;;;;38.17;20.13;;;1.50;99.90;;;;;;5138097;27;20235;-66
2021/04/09 01:02:49;;;;;;;43.70;21.42;;;1.50;99.90;;;;;;5138027;27;20539;-67
2021/04/09 01:05:16;;;;;;;48.10;19.87;;;1.50;99.90;;;;;;5137996;27;20197;-67
2021/04/09 01:07:44;;;;;;;22.52;15.40;;;1.50;99.90;;;;;;5137973;27;20175;-65
2021/04/09 01:10:11;;;;;;;24.45;13.32;;;1.60;99.90;;;;;;5137924;27;20168;-67
2021/04/09 01:12:37;;;;;;;32.63;15.20;;;1.50;99.90;;;;;;5137877;27;20179;-65
2021/04/09 01:15:05;;;;;;;21.25;14.43;;;1.50;99.90;;;;;;5137817;27;20215;-66
2021/04/09 01:17:43;;;;;;;43.13;20.45;;;1.40;99.90;;;;;;5137526;27;20553;-65
2021/04/09 01:20:30;;;;;;;40.25;24.50;;;1.40;99.90;;;;;;5137803;27;20211;-65
2021/04/09 01:23:25;;;;;;;33.05;22.13;;;1.00;99.90;;;;;;5137694;27;20199;-66
2021/04/09 01:26:12;;;;;;;44.05;24.67;;;1.10;99.90;;;;;;5137660;27;20183;-65
2021/04/09 01:28:53;;;;;;;44.00;31.05;;;1.10;99.90;;;;;;5137731;27;20195;-65
2021/04/09 01:31:47;;;;;;;47.45;25.17;;;1.00;99.90;;;;;;5137498;27;20171;-65
2021/04/09 01:34:15;;;;;;;39.67;21.17;;;1.20;99.90;;;;;;5138005;27;20197;-65
2021/04/09 01:36:45;;;;;;;37.90;24.77;;;1.20;99.90;;;;;;5137381;27;20201;-66
2021/04/09 01:39:33;;;;;;;56.85;29.52;;;1.20;99.90;;;;;;5137671;27;20703;-65
2021/04/09 01:42:04;;;;;;;49.55;28.60;;;1.10;99.90;;;;;;5137370;27;20164;-67
2021/04/09 01:44:31;;;;;;;58.80;35.80;;;0.90;99.90;;;;;;5118906;27;20672;-67
2021/04/09 01:46:58;;;;;;;49.67;32.75;;;0.80;99.90;;;;;;5137084;27;20222;-67
2021/04/09 01:49:27;;;;;;;78.95;29.88;;;0.70;99.90;;;;;;5136827;27;20220;-65
2021/04/09 01:51:54;;;;;;;45.75;28.25;;;0.60;99.90;;;;;;5118658;27;20258;-68
2021/04/09 01:54:22;;;;;;;59.38;28.45;;;0.70;99.90;;;;;;5137043;27;20320;-65
2021/04/09 01:56:50;;;;;;;60.15;26.52;;;0.80;99.90;;;;;;5117774;27;20178;-65
2021/04/09 01:59:17;;;;;;;42.45;25.83;;;0.80;99.90;;;;;;5136772;27;20275;-65
2021/04/09 02:01:48;;;;;;;82.97;34.65;;;0.90;99.90;;;;;;5136899;27;20218;-67
2021/04/09 02:04:16;;;;;;;54.03;32.50;;;0.80;99.90;;;;;;5136662;27;20331;-65
2021/04/09 02:06:43;;;;;;;70.07;35.95;;;0.80;99.90;;;;;;5136675;27;20534;-67
2021/04/09 02:09:12;;;;;;;65.88;33.97;;;0.80;99.90;;;;;;5137287;27;20203;-65
2021/04/09 02:11:39;;;;;;;79.72;45.20;;;0.80;99.90;;;;;;5136560;27;20182;-67
2021/04/09 02:14:05;;;;;;;38.38;29.27;;;0.70;99.90;;;;;;5137117;27;20647;-66
2021/04/09 02:16:32;;;;;;;48.53;25.35;;;0.70;99.90;;;;;;5136605;27;20257;-65
2021/04/09 02:18:59;;;;;;;41.33;24.27;;;0.80;99.90;;;;;;5137124;27;20242;-65
2021/04/09 02:21:25;;;;;;;57.90;26.85;;;0.90;99.90;;;;;;5136563;27;20254;-66
2021/04/09 02:23:51;;;;;;;49.05;26.58;;;0.60;99.90;;;;;;5118122;27;21002;-65
2021/04/09 02:26:22;;;;;;;60.97;37.70;;;0.60;99.90;;;;;;5118021;27;20282;-67
2021/04/09 02:28:47;;;;;;;72.03;36.08;;;0.60;99.90;;;;;;5118063;27;20294;-67
2021/04/09 02:31:13;;;;;;;69.00;41.07;;;0.50;99.90;;;;;;5117955;27;20700;-66
2021/04/09 02:33:41;;;;;;;65.70;38.10;;;0.50;99.90;;;;;;5136597;27;20584;-65
2021/04/09 02:36:12;;;;;;;54.38;30.60;;;0.40;99.90;;;;;;5136166;27;20258;-66
2021/04/09 02:38:41;;;;;;;41.53;29.42;;;0.60;99.90;;;;;;5136410;27;20675;-66
2021/04/09 02:41:08;;;;;;;71.93;46.28;;;0.60;99.90;;;;;;5136161;27;20210;-65
2021/04/09 02:43:34;;;;;;;128.30;55.22;;;0.60;99.90;;;;;;5136257;27;20195;-66
2021/04/09 02:46:00;;;;;;;113.38;64.20;;;0.30;99.90;;;;;;5117648;27;20685;-67
2021/04/09 02:48:29;;;;;;;86.03;54.53;;;0.30;99.90;;;;;;5136083;27;20187;-66
2021/04/09 02:50:58;;;;;;;96.57;61.58;;;0.20;99.90;;;;;;5135995;27;20248;-66
2021/04/09 02:53:29;;;;;;;110.65;64.88;;;0.30;99.90;;;;;;5135622;27;20197;-67
2021/04/09 02:55:56;;;;;;;121.97;63.10;;;0.30;99.90;;;;;;5135703;27;20220;-65
2021/04/09 02:58:23;;;;;;;122.45;70.55;;;0.30;99.90;;;;;;5117104;27;20223;-65
2021/04/09 03:00:50;;;;;;;101.93;60.38;;;0.30;99.90;;;;;;5135678;27;20167;-67
2021/04/09 03:03:17;;;;;;;107.32;61.75;;;0.20;99.90;;;;;;5135868;27;20195;-65
2021/04/09 03:05:44;;;;;;;78.90;50.40;;;0.20;99.90;;;;;;5135567;27;20180;-65
2021/04/09 03:08:12;;;;;;;109.47;61.63;;;0.20;99.90;;;;;;5134730;27;20233;-65
2021/04/09 03:10:38;;;;;;;101.10;52.63;;;0.00;99.90;;;;;;5135553;27;20197;-65
2021/04/09 03:13:04;;;;;;;94.90;58.87;;;0.00;99.90;;;;;;5135602;27;20199;-66
2021/04/09 03:15:54;;;;;;;89.97;51.22;;;0.00;99.90;;;;;;5135456;27;20175;-67
2021/04/09 03:18:21;;;;;;;70.63;51.75;;;0.00;99.90;;;;;;5116936;27;20218;-66
2021/04/09 03:20:46;;;;;;;99.22;58.38;;;0.20;99.90;;;;;;5135363;27;20171;-68
2021/04/09 03:23:12;;;;;;;83.03;54.20;;;0.20;99.90;;;;;;5134999;27;20195;-65
2021/04/09 03:25:38;;;;;;;100.27;62.97;;;0.10;99.90;;;;;;5135227;27;20206;-67
2021/04/09 03:28:05;;;;;;;115.10;60.60;;;0.10;99.90;;;;;;5135332;27;20199;-66
2021/04/09 03:30:30;;;;;;;139.98;72.20;;;0.00;99.90;;;;;;5116753;27;20439;-66
2021/04/09 03:32:56;;;;;;;129.03;86.77;;;-0.10;99.90;;;;;;5116815;27;20202;-65
2021/04/09 03:35:21;;;;;;;123.73;58.97;;;0.00;99.90;;;;;;5116673;27;20185;-66
2021/04/09 03:37:48;;;;;;;68.30;50.47;;;0.00;99.90;;;;;;5135038;27;20210;-66
2021/04/09 03:40:15;;;;;;;89.82;55.25;;;0.20;99.90;;;;;;5135044;27;20179;-65
2021/04/09 03:42:41;;;;;;;77.00;52.42;;;0.30;99.90;;;;;;5135009;27;20179;-65
2021/04/09 03:45:07;;;;;;;46.33;36.20;;;0.40;99.90;;;;;;5134979;27;20171;-67
2021/04/09 03:47:33;;;;;;;97.53;56.35;;;0.40;99.90;;;;;;5134794;27;20171;-66
2021/04/09 03:49:59;;;;;;;70.57;46.20;;;0.40;99.90;;;;;;5134754;27;20222;-65
2021/04/09 03:52:24;;;;;;;134.83;74.20;;;0.20;99.90;;;;;;5134840;27;20171;-65
2021/04/09 03:54:50;;;;;;;100.93;61.80;;;0.10;99.90;;;;;;5134804;27;20179;-66
2021/04/09 03:57:16;;;;;;;55.63;44.50;;;0.30;99.90;;;;;;5134872;27;20381;-65
2021/04/09 03:59:41;;;;;;;72.23;42.67;;;0.30;99.90;;;;;;5134619;27;20233;-65
2021/04/09 04:02:07;;;;;;;67.10;46.47;;;0.20;99.90;;;;;;5134710;27;20250;-65
2021/04/09 04:04:33;;;;;;;57.87;41.43;;;0.30;99.90;;;;;;5134617;27;20194;-66
2021/04/09 04:06:58;;;;;;;62.00;42.20;;;0.20;99.90;;;;;;5134714;28;20201;-66
2021/04/09 04:09:24;;;;;;;65.47;38.67;;;0.30;99.90;;;;;;5134642;28;20436;-67
2021/04/09 04:11:50;;;;;;;68.30;41.43;;;0.50;99.90;;;;;;5134620;28;20199;-67
2021/04/09 04:14:15;;;;;;;84.87;54.23;;;0.60;99.90;;;;;;5116229;28;20198;-66
2021/04/09 04:16:41;;;;;;;76.20;45.87;;;0.70;99.90;;;;;;5116011;28;20192;-67
2021/04/09 04:19:07;;;;;;;61.77;48.03;;;0.70;99.90;;;;;;5137087;27;20323;-67
2021/04/09 04:21:33;;;;;;;76.73;52.73;;;0.40;99.90;;;;;;5138837;27;20756;-65
2021/04/09 04:23:58;;;;;;;79.87;54.33;;;0.50;99.90;;;;;;5139222;27;20443;-65
2021/04/09 04:26:24;;;;;;;99.67;67.40;;;0.70;99.90;;;;;;5120317;27;20407;-66
2021/04/09 04:28:50;;;;;;;100.20;67.20;;;2.20;99.90;;;;;;5138937;27;20198;-65
2021/04/09 04:31:16;;;;;;;117.43;59.25;;;3.10;99.90;;;;;;5137507;27;20185;-65
2021/04/09 04:33:42;;;;;;;121.18;71.78;;;3.60;99.90;;;;;;5137366;27;20195;-65
2021/04/09 04:36:08;;;;;;;82.37;66.77;;;4.00;99.90;;;;;;5124208;27;20644;-66
2021/04/09 04:38:33;;;;;;;124.60;67.33;;;4.20;99.90;;;;;;5131955;27;20226;-65
2021/04/09 04:40:59;;;;;;;138.27;65.03;;;4.50;99.90;;;;;;5128907;27;20443;-67
2021/04/09 04:43:25;;;;;;;117.40;67.93;;;4.70;99.90;;;;;;5102810;27;20659;-65
2021/04/09 04:45:51;;;;;;;134.20;77.22;;;4.80;99.90;;;;;;5129471;27;20722;-66
2021/04/09 04:48:17;;;;;;;116.57;64.80;;;5.00;99.90;;;;;;5130771;27;20206;-66
2021/04/09 04:50:42;;;;;;;87.53;66.77;;;5.10;99.90;;;;;;5121976;27;20466;-66
2021/04/09 04:53:08;;;;;;;102.47;66.97;;;5.20;99.90;;;;;;5129401;27;20207;-66
2021/04/09 04:55:34;;;;;;;129.73;69.10;;;5.30;99.90;;;;;;5100748;27;20188;-67
2021/04/09 04:58:00;;;;;;;224.93;116.90;;;4.70;99.90;;;;;;5122745;27;20463;-66
2021/04/09 05:00:26;;;;;;;196.67;104.10;;;2.70;99.90;;;;;;5116291;27;20428;-67
2021/04/09 05:02:52;;;;;;;166.87;110.90;;;2.50;99.90;;;;;;5118682;27;20204;-67
2021/04/09 05:05:17;;;;;;;137.85;75.30;;;3.50;99.90;;;;;;5132234;27;20423;-66
2021/04/09 05:07:43;;;;;;;199.47;90.00;;;3.70;99.90;;;;;;5123359;27;20208;-66
2021/04/09 05:10:10;;;;;;;144.23;71.23;;;2.00;99.90;;;;;;5131542;27;20183;-68
2021/04/09 05:12:36;;;;;;;124.85;61.35;;;1.00;99.90;;;;;;5121567;27;20183;-67
2021/04/09 05:15:03;;;;;;;128.88;62.25;;;0.50;99.90;;;;;;5111948;27;20175;-67
2021/04/09 05:17:29;;;;;;;145.23;70.47;;;0.50;99.90;;;;;;5119483;27;20195;-66
2021/04/09 05:19:54;;;;;;;101.10;50.80;;;0.50;99.90;;;;;;5129644;27;20194;-68
2021/04/09 05:22:20;;;;;;;78.07;43.27;;;0.50;99.90;;;;;;5098482;27;20179;-66
2021/04/09 05:24:46;;;;;;;38.90;22.63;;;0.50;99.90;;;;;;5120427;27;20578;-67
2021/04/09 05:27:12;;;;;;;33.88;24.27;;;0.40;99.90;;;;;;5131004;27;20208;-67
2021/04/09 05:29:38;;;;;;;28.93;16.33;;;0.50;99.90;;;;;;5106270;28;20632;-67
2021/04/09 05:32:11;;;;;;;17.23;12.67;;;0.60;99.90;;;;;;5102801;27;20172;-66
2021/04/09 05:34:37;;;;;;;21.83;12.05;;;0.60;99.90;;;;;;5117533;27;20297;-65
2021/04/09 05:37:03;;;;;;;12.40;6.90;;;0.70;99.90;;;;;;5132138;27;20207;-66
2021/04/09 05:39:29;;;;;;;7.55;5.28;;;0.90;99.90;;;;;;5127288;27;20321;-67
2021/04/09 05:41:55;;;;;;;12.60;6.67;;;1.10;99.90;;;;;;5128596;27;20278;-66
2021/04/09 05:44:21;;;;;;;10.73;7.55;;;1.20;99.90;;;;;;5125425;27;20215;-65
2021/04/09 05:46:47;;;;;;;11.88;6.07;;;1.30;99.90;;;;;;5130310;27;20376;-65
2021/04/09 05:49:13;;;;;;;6.13;4.63;;;1.30;99.90;;;;;;5117798;27;20798;-65
2021/04/09 05:51:38;;;;;;;6.87;6.07;;;1.30;99.90;;;;;;5118753;27;20191;-65
2021/04/09 05:54:04;;;;;;;4.97;3.67;;;1.40;99.90;;;;;;5111279;27;20196;-66
2021/04/09 05:56:30;;;;;;;10.88;9.32;;;1.70;99.90;;;;;;5105120;27;20184;-66
2021/04/09 05:58:56;;;;;;;8.80;5.60;;;1.90;99.90;;;;;;5117866;27;20222;-65
2021/04/09 06:01:22;;;;;;;3.23;2.93;;;2.10;99.90;;;;;;5116622;27;20669;-66
2021/04/09 06:03:48;;;;;;;20.90;13.70;;;2.20;99.90;;;;;;5129228;27;20202;-67
2021/04/09 06:06:14;;;;;;;28.88;15.10;;;2.30;99.90;;;;;;5134828;27;20194;-68
2021/04/09 06:08:39;;;;;;;5.82;4.95;;;2.50;99.90;;;;;;5122635;27;20660;-65
2021/04/09 06:11:05;;;;;;;4.93;3.70;;;2.60;99.90;;;;;;5109498;27;20184;-66
2021/04/09 06:13:31;;;;;;;9.00;4.57;;;2.70;99.90;;;;;;5121448;27;20203;-67
2021/04/09 06:15:57;;;;;;;9.70;6.50;;;2.80;99.90;;;;;;5127568;27;20708;-67
2021/04/09 06:18:23;;;;;;;6.90;4.90;;;2.80;99.90;;;;;;5109553;27;20221;-67
2021/04/09 06:20:49;;;;;;;6.60;5.13;;;3.00;99.90;;;;;;5115663;27;20214;-65
2021/04/09 06:23:15;;;;;;;4.78;3.88;;;3.10;99.90;;;;;;5121497;27;20219;-68
2021/04/09 06:25:40;;;;;;;6.03;3.43;;;3.40;99.90;;;;;;5125874;27;20228;-65
2021/04/09 06:28:06;;;;;;;5.20;3.00;;;3.50;99.90;;;;;;5131556;27;20447;-67
2021/04/09 06:30:31;;;;;;;8.23;5.83;;;3.70;99.90;;;;;;5122160;27;20675;-67
2021/04/09 06:32:57;;;;;;;8.53;3.87;;;3.90;99.90;;;;;;5132182;27;20558;-66
2021/04/09 06:35:23;;;;;;;3.37;3.17;;;4.10;99.90;;;;;;5126870;27;20187;-67
2021/04/09 06:37:48;;;;;;;8.10;5.00;;;4.00;99.90;;;;;;5122524;27;20203;-66
2021/04/09 06:40:19;;;;;;;6.23;4.87;;;4.30;99.90;;;;;;5122551;27;20183;-67
2021/04/09 06:42:44;;;;;;;6.75;4.80;;;4.40;99.90;;;;;;5118661;27;20549;-67
2021/04/09 06:45:11;;;;;;;6.30;3.97;;;4.60;99.90;;;;;;5122711;27;20267;-66
2021/04/09 06:47:36;;;;;;;5.10;3.85;;;4.90;99.90;;;;;;5126418;27;20436;-66
2021/04/09 06:50:05;;;;;;;7.20;4.10;;;5.00;99.90;;;;;;5126786;27;20264;-66
2021/04/09 06:52:31;;;;;;;4.10;3.17;;;5.10;99.90;;;;;;5128960;27;20182;-67
2021/04/09 06:55:00;;;;;;;5.87;3.80;;;5.20;99.90;;;;;;5122038;27;20267;-67
2021/04/09 06:57:28;;;;;;;3.47;2.45;;;5.40;99.90;;;;;;5120317;27;20188;-65
2021/04/09 06:59:57;;;;;;;4.55;3.60;;;5.10;99.90;;;;;;5120052;27;20180;-65
2021/04/09 07:02:23;;;;;;;2.85;2.65;;;5.50;99.90;;;;;;5122156;27;20176;-66
2021/04/09 07:04:49;;;;;;;3.57;2.63;;;5.70;99.90;;;;;;5119270;27;20208;-68
2021/04/09 07:07:18;;;;;;;6.73;3.80;;;5.90;99.90;;;;;;5120291;27;20778;-66
2021/04/09 07:09:47;;;;;;;2.30;2.10;;;6.00;99.90;;;;;;5106384;28;20240;-66
2021/04/09 07:12:24;;;;;;;7.00;3.13;;;6.20;99.90;;;;;;5119441;27;20227;-67
2021/04/09 07:14:53;;;;;;;5.18;3.60;;;6.40;99.90;;;;;;5108385;27;20183;-66
2021/04/09 07:17:29;;;;;;;7.43;4.97;;;6.50;99.90;;;;;;5121607;27;20282;-66
2021/04/09 07:20:10;;;;;;;3.05;2.72;;;6.40;99.90;;;;;;5121146;27;20190;-66
2021/04/09 07:22:36;;;;;;;5.43;3.75;;;6.20;99.90;;;;;;5100311;28;20180;-66
2021/04/09 07:25:15;;;;;;;6.95;6.30;;;6.70;99.90;;;;;;5123938;27;20193;-68
2021/04/09 07:27:42;;;;;;;4.82;3.20;;;6.90;99.90;;;;;;5120301;27;20174;-65
2021/04/09 07:30:10;;;;;;;8.00;5.07;;;7.20;99.90;;;;;;5115720;27;20189;-66
2021/04/09 07:32:37;;;;;;;11.32;8.55;;;7.20;99.90;;;;;;5108385;27;20664;-66
2021/04/09 07:35:11;;;;;;;13.13;8.10;;;7.00;99.90;;;;;;5122961;27;20551;-68
2021/04/09 07:37:56;;;;;;;7.47;4.88;;;7.10;99.90;;;;;;5120427;27;20171;-65
2021/04/09 07:40:32;;;;;;;11.82;6.05;;;7.40;99.90;;;;;;5100957;28;20278;-67
2021/04/09 07:43:00;;;;;;;5.47;3.65;;;7.50;99.90;;;;;;5126024;27;20221;-67
2021/04/09 07:45:28;;;;;;;7.63;4.43;;;7.70;99.90;;;;;;5122812;27;20644;-67
2021/04/09 07:47:54;;;;;;;10.63;6.93;;;7.60;99.90;;;;;;5120536;27;20196;-66
2021/04/09 07:50:30;;;;;;;4.33;3.80;;;7.80;99.90;;;;;;5114933;27;20575;-66
2021/04/09 07:52:55;;;;;;;5.18;4.03;;;7.90;99.90;;;;;;5125994;27;20659;-65
2021/04/09 07:55:23;;;;;;;5.90;3.03;;;8.20;99.90;;;;;;5119519;27;20187;-65
2021/04/09 07:57:52;;;;;;;5.65;4.07;;;8.10;99.90;;;;;;5124555;27;20211;-68
2021/04/09 08:00:23;;;;;;;8.70;4.88;;;8.20;99.90;;;;;;5134433;27;20179;-67
2021/04/09 08:02:52;;;;;;;6.53;4.28;;;8.10;99.90;;;;;;5133467;27;20191;-65
2021/04/09 08:05:26;;;;;;;4.28;3.28;;;8.10;99.90;;;;;;5121442;27;20175;-66
2021/04/09 08:07:52;;;;;;;4.25;3.20;;;8.40;99.90;;;;;;5120557;28;20210;-66
2021/04/09 08:10:25;;;;;;;2.10;1.83;;;8.50;99.90;;;;;;5115371;28;20191;-66
2021/04/09 08:12:53;;;;;;;3.65;2.85;;;8.70;99.90;;;;;;5118958;28;20198;-66
2021/04/09 08:15:28;;;;;;;2.28;2.08;;;8.90;99.90;;;;;;5115940;28;20187;-67
2021/04/09 08:18:05;;;;;;;4.22;2.75;;;9.30;99.90;;;;;;5125297;28;20209;-68
2021/04/09 08:20:37;;;;;;;5.88;3.22;;;9.10;99.90;;;;;;5105375;28;20240;-68
2021/04/09 08:23:05;;;;;;;3.47;2.30;;;9.30;99.90;;;;;;5121058;28;20199;-68
2021/04/09 08:25:33;;;;;;;3.05;2.65;;;9.10;98.50;;;;;;5094212;28;20183;-67
2021/04/09 08:28:00;;;;;;;6.05;4.15;;;9.50;97.10;;;;;;5119180;28;20356;-67
2021/04/09 08:30:28;;;;;;;2.03;1.85;;;9.60;96.80;;;;;;5118011;28;20171;-67
2021/04/09 08:32:55;;;;;;;4.40;3.00;;;9.40;96.30;;;;;;5125165;28;20223;-68
2021/04/09 08:35:22;;;;;;;3.58;2.70;;;9.70;95.40;;;;;;5126213;28;20183;-66
2021/04/09 08:37:50;;;;;;;7.18;3.10;;;9.60;95.00;;;;;;5114766;28;20279;-66
2021/04/09 08:40:16;;;;;;;3.60;2.50;;;9.60;95.40;;;;;;5114558;28;20187;-66
2021/04/09 08:42:43;;;;;;;4.63;3.38;;;9.90;94.90;;;;;;5114486;28;20236;-66
2021/04/09 08:45:09;;;;;;;6.13;3.42;;;10.10;93.80;;;;;;5100433;28;20521;-68
2021/04/09 08:47:36;;;;;;;2.75;1.70;;;10.50;93.00;;;;;;5114817;28;20232;-66
2021/04/09 08:50:07;;;;;;;3.38;3.00;;;11.40;90.70;;;;;;5117286;28;20423;-66
2021/04/09 08:52:39;;;;;;;3.87;2.40;;;11.50;90.10;;;;;;5111230;28;20200;-67
2021/04/09 08:55:05;;;;;;;3.50;2.53;;;11.90;88.30;;;;;;5108344;28;20419;-66
2021/04/09 08:57:32;;;;;;;5.03;2.53;;;12.00;85.00;;;;;;5108122;28;20432;-66
2021/04/09 09:00:11;;;;;;;7.77;3.03;;;12.70;84.50;;;;;;5117310;28;20524;-66
2021/04/09 09:02:44;;;;;;;8.63;4.20;;;12.40;78.80;;;;;;5100784;28;20436;-66
2021/04/09 09:05:12;;;;;;;8.43;4.70;;;11.20;82.50;;;;;;5126096;27;20801;-66
2021/04/09 09:07:51;;;;;;;3.90;3.00;;;11.20;79.10;;;;;;5129500;27;20424;-67
2021/04/09 09:10:22;;;;;;;7.07;3.10;;;11.50;78.50;;;;;;5119890;27;20514;-66
2021/04/09 09:13:03;;;;;;;4.40;2.77;;;12.00;77.00;;;;;;5117438;27;20452;-66
2021/04/09 09:15:47;;;;;;;5.40;4.63;;;12.10;75.30;;;;;;5122690;27;20959;-68
2021/04/09 09:18:24;;;;;;;5.93;3.37;;;12.10;76.20;;;;;;5126733;27;20877;-67
2021/04/09 09:21:05;;;;;;;7.50;4.10;;;11.70;76.00;;;;;;5107842;27;21045;-69
2021/04/09 09:23:48;;;;;;;8.87;3.93;;;11.20;78.10;;;;;;5126596;27;20479;-68
2021/04/09 09:26:32;;;;;;;5.73;3.47;;;11.60;76.60;;;;;;5102728;27;20471;-66
2021/04/09 09:29:27;;;;;;;5.40;3.47;;;11.30;76.10;;;;;;5121910;27;20479;-67
2021/04/09 09:32:00;;;;;;;8.40;4.27;;;11.60;75.10;;;;;;5118237;27;20439;-66
2021/04/09 09:34:27;;;;;;;5.43;3.73;;;12.20;74.60;;;;;;5120631;27;20699;-68
2021/04/09 09:37:11;;;;;;;7.47;4.13;;;12.20;72.90;;;;;;5126615;27;20423;-68
2021/04/09 09:39:49;;;;;;;4.67;3.30;;;11.60;72.70;;;;;;5121184;27;20463;-66
2021/04/09 09:42:41;;;;;;;6.20;3.53;;;11.90;73.90;;;;;;5121986;27;20443;-68
2021/04/09 09:45:09;;;;;;;5.07;3.47;;;12.00;72.00;;;;;;5109782;27;20500;-66
2021/04/09 09:47:40;;;;;;;5.40;3.00;;;11.90;71.70;;;;;;5101772;28;20985;-67
2021/04/09 09:50:12;;;;;;;4.33;3.10;;;11.80;71.30;;;;;;5118666;27;21130;-67
2021/04/09 09:52:45;;;;;;;4.80;3.07;;;12.50;67.50;;;;;;5116946;27;20803;-66
2021/04/09 09:55:13;;;;;;;4.10;3.40;;;12.70;68.00;;;;;;5121678;27;20863;-68
2021/04/09 09:57:51;;;;;;;4.30;2.30;;;12.10;69.60;;;;;;5123231;27;20435;-66
2021/04/09 10:00:38;;;;;;;3.90;1.83;;;13.10;68.20;;;;;;5114850;27;20522;-66
2021/04/09 10:03:11;;;;;;;2.73;2.47;;;13.20;67.00;;;;;;5123078;27;20449;-69
2021/04/09 10:05:37;;;;;;;3.47;1.90;;;13.40;65.50;;;;;;5113261;27;20419;-67
2021/04/09 10:08:04;;;;;;;2.60;2.37;;;12.90;65.60;;;;;;5111277;27;20458;-68
2021/04/09 10:10:46;;;;;;;4.90;2.90;;;13.10;64.60;;;;;;5123606;27;20856;-67
2021/04/09 10:13:24;;;;;;;4.63;2.60;;;13.10;63.60;;;;;;5116829;27;20543;-68
2021/04/09 10:16:14;;;;;;;2.50;2.30;;;12.70;64.00;;;;;;5122654;27;20499;-66
2021/04/09 10:18:48;;;;;;;2.90;2.63;;;13.00;64.40;;;;;;5109998;27;20471;-67
2021/04/09 10:21:27;;;;;;;5.67;2.50;;;13.20;63.30;;;;;;5119420;27;20519;-67
2021/04/09 10:24:20;;;;;;;1.73;1.50;;;13.30;63.00;;;;;;5124182;27;20459;-68
2021/04/09 10:27:02;;;;;;;6.13;4.30;;;12.90;60.80;;;;;;5114779;27;20428;-67
2021/04/09 10:29:35;;;;;;;5.53;3.20;;;12.50;60.40;;;;;;5121891;27;20454;-68
2021/04/09 10:32:07;;;;;;;3.53;2.87;;;13.00;61.30;;;;;;5111192;27;20905;-66
2021/04/09 10:34:33;;;;;;;2.87;2.47;;;13.10;62.50;;;;;;5117352;27;20534;-66
2021/04/09 10:37:00;;;;;;;4.90;3.00;;;13.40;63.10;;;;;;5120994;27;21037;-68
2021/04/09 10:39:27;;;;;;;3.30;2.23;;;13.50;61.60;;;;;;5120921;27;20557;-68
2021/04/09 10:41:57;;;;;;;4.67;2.60;;;13.20;62.20;;;;;;5121617;27;20423;-66
2021/04/09 10:44:25;;;;;;;4.03;2.97;;;13.20;61.90;;;;;;5105110;27;20582;-66
2021/04/09 10:46:56;;;;;;;4.57;1.70;;;13.40;61.10;;;;;;5121182;27;20905;-66
2021/04/09 10:49:25;;;;;;;2.50;2.30;;;12.90;61.30;;;;;;5117924;27;20514;-67
2021/04/09 10:51:54;;;;;;;2.73;2.43;;;13.30;61.30;;;;;;5122523;27;20426;-66
2021/04/09 10:54:20;;;;;;;3.20;2.43;;;12.70;61.80;;;;;;5125533;27;20475;-67
2021/04/09 10:56:51;;;;;;;3.63;2.70;;;12.70;62.00;;;;;;5102690;27;20500;-67
2021/04/09 10:59:17;;;;;;;2.40;1.87;;;13.10;61.50;;;;;;5116858;27;20214;-68
2021/04/09 11:01:43;;;;;;;2.70;2.13;;;12.70;61.60;;;;;;5119359;27;20421;-68
2021/04/09 11:04:12;;;;;;;2.63;2.20;;;13.20;61.70;;;;;;5121815;27;20463;-67
2021/04/09 11:06:38;;;;;;;4.90;2.23;;;12.90;60.80;;;;;;5124012;27;20671;-68
2021/04/09 11:09:05;;;;;;;2.23;2.03;;;13.00;61.60;;;;;;5120119;27;20455;-67
2021/04/09 11:11:34;;;;;;;4.70;2.43;;;13.50;60.40;;;;;;5106828;27;20420;-67
2021/04/09 11:14:02;;;;;;;9.80;2.53;;;13.90;60.60;;;;;;5117591;27;20448;-67
2021/04/09 11:16:28;;;;;;;4.07;2.50;;;14.10;60.00;;;;;;5107027;27;20435;-68
2021/04/09 11:18:59;;;;;;;3.97;2.80;;;13.10;59.80;;;;;;5120735;27;20821;-67
2021/04/09 11:21:46;;;;;;;2.97;2.20;;;13.30;60.50;;;;;;5113418;27;20191;-67
2021/04/09 11:24:33;;;;;;;2.80;1.77;;;13.10;61.20;;;;;;5119741;27;20451;-66
2021/04/09 11:27:02;;;;;;;5.83;2.60;;;12.80;60.60;;;;;;5112300;27;20427;-67
2021/04/09 11:29:32;;;;;;;3.20;2.70;;;13.90;60.00;;;;;;5113397;27;20447;-67
2021/04/09 11:32:07;;;;;;;6.43;4.27;;;13.90;59.30;;;;;;5115320;27;20451;-70
2021/04/09 11:34:37;;;;;;;4.27;2.70;;;14.00;59.30;;;;;;5105147;28;20447;-68
2021/04/09 11:37:03;;;;;;;4.80;3.07;;;13.50;58.80;;;;;;5116287;27;20412;-66
2021/04/09 11:39:29;;;;;;;2.20;2.00;;;13.90;60.00;;;;;;5118984;27;20466;-67
2021/04/09 11:41:57;;;;;;;3.47;2.80;;;14.50;58.20;;;;;;5121249;27;20494;-68
2021/04/09 11:44:36;;;;;;;3.33;2.50;;;15.00;58.30;;;;;;5124226;27;20242;-69
2021/04/09 11:47:20;;;;;;;3.93;2.87;;;15.10;57.90;;;;;;5116520;27;20478;-68
2021/04/09 11:49:47;;;;;;;4.20;2.63;;;14.60;56.80;;;;;;5112811;27;20478;-69
2021/04/09 11:52:14;;;;;;;3.30;2.40;;;14.30;58.70;;;;;;5130960;27;20422;-69
2021/04/09 11:54:41;;;;;;;4.13;2.50;;;14.80;58.30;;;;;;5130762;27;20533;-69
2021/04/09 11:57:28;;;;;;;4.00;2.90;;;15.00;57.50;;;;;;5113001;28;20428;-69
2021/04/09 11:59:54;;;;;;;2.60;2.00;;;15.10;57.10;;;;;;5105978;28;20456;-70
2021/04/09 12:02:21;;;;;;;2.70;2.20;;;14.90;56.40;;;;;;5108272;27;20515;-69
2021/04/09 12:04:47;;;;;;;4.47;3.07;;;14.60;57.20;;;;;;5129703;27;20431;-69
2021/04/09 12:07:18;;;;;;;3.80;2.03;;;15.00;56.00;;;;;;5131146;27;20759;-69
2021/04/09 12:09:46;;;;;;;7.40;3.83;;;14.30;56.10;;;;;;5127827;28;20521;-68
2021/04/09 12:12:13;;;;;;;5.43;3.27;;;14.60;56.50;;;;;;5118277;27;20812;-66
2021/04/09 12:14:56;;;;;;;2.73;2.20;;;14.80;57.20;;;;;;5109362;28;20443;-68
2021/04/09 12:17:24;;;;;;;5.53;2.77;;;14.60;57.10;;;;;;5148461;27;20518;-68
2021/04/09 12:19:51;;;;;;;3.43;2.67;;;15.00;57.20;;;;;;5149025;27;20961;-68
2021/04/09 12:22:17;;;;;;;4.23;3.30;;;14.80;56.90;;;;;;5111319;28;20412;-69
2021/04/09 12:24:43;;;;;;;3.43;2.60;;;14.60;57.00;;;;;;5115647;28;20455;-69
2021/04/09 12:27:10;;;;;;;4.83;2.03;;;14.40;55.70;;;;;;5107785;28;20450;-69
2021/04/09 12:29:36;;;;;;;4.00;2.70;;;14.70;56.30;;;;;;5118998;28;20506;-66
2021/04/09 12:32:03;;;;;;;5.33;3.23;;;14.60;55.90;;;;;;5117077;27;20466;-66
2021/04/09 12:34:29;;;;;;;3.03;2.47;;;15.30;56.70;;;;;;5123396;27;20433;-66
2021/04/09 12:36:54;;;;;;;3.93;2.83;;;15.30;55.40;;;;;;5122492;27;20424;-68
2021/04/09 12:39:22;;;;;;;4.43;3.23;;;14.70;55.80;;;;;;5134545;27;20726;-68
2021/04/09 12:41:48;;;;;;;2.03;1.67;;;14.80;55.50;;;;;;5124211;27;20277;-65
2021/04/09 12:44:15;;;;;;;4.63;3.13;;;14.70;56.00;;;;;;5121407;27;20470;-67
2021/04/09 12:46:48;;;;;;;4.13;3.03;;;14.80;56.00;;;;;;5119198;27;20427;-65
2021/04/09 12:49:16;;;;;;;3.93;2.57;;;15.20;55.80;;;;;;5119095;27;20800;-67
2021/04/09 12:51:41;;;;;;;4.07;2.40;;;15.50;56.80;;;;;;5110633;27;21012;-67
2021/04/09 12:54:07;;;;;;;5.20;2.77;;;15.50;55.90;;;;;;5122129;27;20475;-69